createdAt,value
2023-05-25T00:01:02.974Z,26.67
2023-05-25T00:03:31.361Z,27.42
2023-05-25T00:06:01.537Z,27.67
2023-05-25T00:08:29.706Z,25.70
2023-05-25T00:10:56.578Z,27.07
2023-05-25T00:13:23.342Z,30.87
2023-05-25T00:15:50.657Z,31.23
2023-05-25T00:18:18.494Z,26.73
2023-05-25T00:20:45.995Z,26.27
2023-05-25T00:23:12.784Z,23.73
2023-05-25T00:25:39.523Z,24.07
2023-05-25T00:28:06.468Z,30.20
2023-05-25T00:30:33.225Z,23.20
2023-05-25T00:33:01.619Z,25.63
2023-05-25T00:35:28.899Z,24.30
2023-05-25T00:37:55.991Z,26.33
2023-05-25T00:40:22.833Z,21.77
2023-05-25T00:42:52.494Z,23.77
2023-05-25T00:45:19.198Z,18.33
2023-05-25T00:47:51.244Z,18.67
2023-05-25T00:50:30.489Z,18.93
2023-05-25T00:52:57.326Z,18.23
2023-05-25T00:55:25.976Z,22.87
2023-05-25T00:57:55.442Z,22.00
2023-05-25T01:00:23.812Z,21.37
2023-05-25T01:02:53.137Z,23.50
2023-05-25T01:05:21.769Z,23.60
2023-05-25T01:07:50.581Z,22.47
2023-05-25T01:10:20.779Z,21.57
2023-05-25T01:12:53.242Z,20.70
2023-05-25T01:15:20.956Z,22.57
2023-05-25T01:17:54.126Z,22.93
2023-05-25T01:20:21.134Z,18.97
2023-05-25T01:22:54.283Z,21.40
2023-05-25T01:25:31.568Z,20.33
2023-05-25T01:28:09.526Z,22.37
2023-05-25T01:30:38.752Z,19.80
2023-05-25T01:33:07.385Z,21.17
2023-05-25T01:35:35.739Z,19.80
2023-05-25T01:38:03.096Z,21.90
2023-05-25T01:40:29.963Z,20.00
2023-05-25T01:42:56.862Z,21.20
2023-05-25T01:45:24.073Z,20.60
2023-05-25T01:48:15.418Z,18.03
2023-05-25T01:50:54.686Z,19.83
2023-05-25T01:53:35.983Z,20.03
2023-05-25T01:56:08.809Z,23.20
2023-05-25T01:58:42.076Z,19.97
2023-05-25T02:01:10.449Z,19.93
2023-05-25T02:03:38.257Z,21.83
2023-05-25T02:06:05.610Z,22.00
2023-05-25T02:08:34.919Z,20.67
2023-05-25T02:11:01.911Z,20.43
2023-05-25T02:13:28.682Z,21.83
2023-05-25T02:15:55.704Z,23.13
2023-05-25T02:18:22.624Z,20.60
2023-05-25T02:20:49.594Z,22.90
2023-05-25T02:23:18.670Z,24.20
2023-05-25T02:25:45.814Z,21.63
2023-05-25T02:28:12.930Z,27.27
2023-05-25T02:30:39.707Z,24.43
2023-05-25T02:33:06.547Z,26.30
2023-05-25T02:35:34.775Z,28.77
2023-05-25T02:38:01.910Z,27.73
2023-05-25T02:40:28.758Z,31.40
2023-05-25T02:42:55.734Z,27.37
2023-05-25T02:45:22.740Z,28.17
2023-05-25T02:47:50.084Z,32.03
2023-05-25T02:50:17.578Z,33.10
2023-05-25T02:52:47.508Z,32.87
2023-05-25T02:55:14.654Z,37.43
2023-05-25T02:57:42.460Z,36.47
2023-05-25T03:00:12.462Z,34.60
2023-05-25T03:02:39.656Z,32.27
2023-05-25T03:05:07.578Z,35.67
2023-05-25T03:07:35.713Z,32.03
2023-05-25T03:10:02.589Z,33.47
2023-05-25T03:12:29.678Z,35.17
2023-05-25T03:14:56.584Z,36.23
2023-05-25T03:17:23.582Z,39.70
2023-05-25T03:19:50.446Z,43.97
2023-05-25T03:22:17.205Z,32.20
2023-05-25T03:24:46.663Z,43.43
2023-05-25T03:27:13.946Z,49.03
2023-05-25T03:29:40.743Z,43.73
2023-05-25T03:32:08.798Z,41.27
2023-05-25T03:34:37.398Z,42.33
2023-05-25T03:37:05.442Z,42.50
2023-05-25T03:39:32.239Z,45.50
2023-05-25T03:41:59.067Z,48.83
2023-05-25T03:44:25.908Z,51.40
2023-05-25T03:46:53.471Z,47.07
2023-05-25T03:49:20.377Z,42.97
2023-05-25T03:51:47.139Z,40.90
2023-05-25T03:54:14.087Z,26.87
2023-05-25T03:56:41.006Z,40.37
2023-05-25T03:59:07.886Z,39.77
2023-05-25T04:01:38.180Z,39.57
2023-05-25T04:04:06.787Z,37.27
2023-05-25T04:06:37.230Z,34.90
2023-05-25T04:09:04.887Z,35.80
2023-05-25T04:11:33.276Z,36.67
2023-05-25T04:14:00.064Z,32.77
2023-05-25T04:16:30.020Z,39.20
2023-05-25T04:18:57.480Z,33.87
2023-05-25T04:21:24.736Z,32.80
2023-05-25T04:23:51.563Z,33.70
2023-05-25T04:26:19.543Z,32.17
2023-05-25T04:28:48.683Z,33.60
2023-05-25T04:31:34.062Z,36.57
2023-05-25T04:34:21.587Z,37.10
2023-05-25T04:37:05.614Z,39.93
2023-05-25T04:39:33.115Z,36.57
2023-05-25T04:42:04.698Z,40.73
2023-05-25T04:44:33.384Z,32.83
2023-05-25T04:47:01.478Z,35.37
2023-05-25T04:49:34.024Z,35.60
2023-05-25T04:52:01.080Z,35.57
2023-05-25T04:54:29.929Z,32.53
2023-05-25T04:56:59.452Z,32.30
2023-05-25T04:59:26.314Z,32.73
2023-05-25T05:01:53.175Z,35.23
2023-05-25T05:04:20.452Z,35.10
2023-05-25T05:06:47.755Z,33.17
2023-05-25T05:09:23.000Z,34.10
2023-05-25T05:11:49.845Z,35.15
2023-05-25T05:14:18.150Z,36.43
2023-05-25T05:16:48.061Z,33.63
2023-05-25T05:19:15.153Z,31.10
2023-05-25T05:21:42.255Z,35.87
2023-05-25T05:24:09.318Z,32.87
2023-05-25T05:26:48.171Z,33.97
2023-05-25T05:29:27.892Z,34.50
2023-05-25T05:31:55.632Z,38.63
2023-05-25T05:34:22.476Z,31.33
2023-05-25T05:36:57.506Z,35.37
2023-05-25T05:39:27.460Z,32.28
2023-05-25T05:41:55.157Z,38.73
2023-05-25T05:44:23.467Z,33.00
2023-05-25T05:46:52.285Z,29.83
2023-05-25T05:49:19.160Z,28.80
2023-05-25T05:51:46.048Z,27.50
2023-05-25T05:54:13.875Z,29.40
2023-05-25T05:56:40.889Z,29.23
2023-05-25T05:59:07.716Z,25.38
2023-05-25T06:01:34.647Z,24.40
2023-05-25T06:04:02.121Z,21.67
2023-05-25T06:06:28.903Z,24.77
2023-05-25T06:08:57.629Z,20.58
2023-05-25T06:11:24.419Z,21.27
2023-05-25T06:13:51.211Z,22.67
2023-05-25T06:16:18.060Z,22.45
2023-05-25T06:18:45.191Z,23.57
2023-05-25T06:21:13.028Z,22.92
2023-05-25T06:23:39.965Z,19.67
2023-05-25T06:26:07.127Z,26.40
2023-05-25T06:28:34.592Z,20.85
2023-05-25T06:31:01.444Z,23.33
2023-05-25T06:33:28.288Z,24.48
2023-05-25T06:35:58.677Z,18.98
2023-05-25T06:38:25.517Z,19.95
2023-05-25T06:40:53.054Z,21.65
2023-05-25T06:43:20.529Z,18.83
2023-05-25T06:45:54.578Z,21.40
2023-05-25T06:48:21.411Z,23.27
2023-05-25T06:50:48.240Z,20.25
2023-05-25T06:53:15.335Z,23.88
2023-05-25T06:55:42.572Z,25.50
2023-05-25T06:58:09.446Z,22.13
2023-05-25T07:00:36.234Z,22.83
2023-05-25T07:03:03.119Z,21.02
2023-05-25T07:05:29.927Z,22.38
2023-05-25T07:07:56.716Z,22.27
2023-05-25T07:10:23.966Z,18.60
2023-05-25T07:12:50.834Z,21.45
2023-05-25T07:15:17.775Z,22.50
2023-05-25T07:17:45.210Z,21.77
2023-05-25T07:20:13.265Z,21.00
2023-05-25T07:22:40.226Z,17.80
2023-05-25T07:25:07.471Z,19.60
2023-05-25T07:27:34.380Z,20.15
2023-05-25T07:30:01.137Z,19.00
2023-05-25T07:32:28.048Z,19.92
2023-05-25T07:34:54.914Z,28.58
2023-05-25T07:37:21.675Z,21.55
2023-05-25T07:39:48.566Z,19.30
2023-05-25T07:42:20.861Z,22.17
2023-05-25T07:44:49.129Z,22.20
2023-05-25T07:47:16.005Z,20.05
2023-05-25T07:49:42.923Z,17.73
2023-05-25T07:52:10.434Z,18.55
2023-05-25T07:54:40.329Z,17.27
2023-05-25T07:57:08.024Z,21.38
2023-05-25T07:59:35.320Z,17.63
2023-05-25T08:02:02.767Z,20.95
2023-05-25T08:04:31.373Z,19.48
2023-05-25T08:06:58.376Z,19.70
2023-05-25T08:09:25.122Z,21.92
2023-05-25T08:11:52.352Z,23.88
2023-05-25T08:14:21.265Z,26.98
2023-05-25T08:16:48.203Z,23.58
2023-05-25T08:19:15.073Z,21.27
2023-05-25T08:21:41.962Z,21.15
2023-05-25T08:24:08.776Z,23.23
2023-05-25T08:26:52.830Z,22.88
2023-05-25T08:29:21.406Z,22.48
2023-05-25T08:31:49.848Z,26.15
2023-05-25T08:34:17.144Z,23.73
2023-05-25T08:36:44.877Z,26.77
2023-05-25T08:39:11.880Z,25.30
2023-05-25T08:41:43.092Z,24.58
2023-05-25T08:44:10.807Z,25.80
2023-05-25T08:46:37.907Z,24.63
2023-05-25T08:49:13.200Z,26.52
2023-05-25T08:51:49.824Z,26.60
2023-05-25T08:54:19.661Z,23.63
2023-05-25T08:56:50.866Z,27.17
2023-05-25T08:59:23.474Z,25.23
2023-05-25T09:01:56.460Z,23.73
2023-05-25T09:04:24.185Z,23.60
2023-05-25T09:07:05.675Z,25.20
2023-05-25T09:09:38.041Z,26.23
2023-05-25T09:12:06.329Z,27.10
2023-05-25T09:14:34.858Z,23.42
2023-05-25T09:17:01.992Z,25.70
2023-05-25T09:19:28.757Z,20.63
2023-05-25T09:22:03.190Z,19.60
2023-05-25T09:24:41.528Z,17.05
2023-05-25T09:27:11.845Z,20.42
2023-05-25T09:29:38.901Z,20.50
2023-05-25T09:32:06.796Z,18.60
2023-05-25T09:34:34.976Z,19.65
2023-05-25T09:37:04.738Z,17.92
2023-05-25T09:39:31.845Z,18.23
2023-05-25T09:41:58.787Z,16.60
2023-05-25T09:44:27.200Z,16.42
2023-05-25T09:46:54.110Z,16.92
2023-05-25T09:49:21.332Z,18.20
2023-05-25T09:51:48.434Z,16.15
2023-05-25T09:54:15.637Z,16.88
2023-05-25T09:56:42.656Z,12.98
2023-05-25T09:59:09.618Z,14.00
2023-05-25T10:01:36.960Z,17.50
2023-05-25T10:04:05.455Z,19.35
2023-05-25T10:06:33.888Z,13.75
2023-05-25T10:09:01.692Z,17.10
2023-05-25T10:11:29.490Z,14.25
2023-05-25T10:13:56.827Z,14.13
2023-05-25T10:16:29.692Z,13.48
2023-05-25T10:19:26.047Z,15.60
2023-05-25T10:22:01.534Z,11.98
2023-05-25T10:24:35.150Z,13.32
2023-05-25T10:27:14.719Z,14.52
2023-05-25T10:29:52.582Z,13.23
2023-05-25T10:32:19.573Z,11.40
2023-05-25T10:34:48.819Z,11.75
2023-05-25T10:37:18.587Z,13.77
2023-05-25T10:39:46.348Z,11.38
2023-05-25T10:42:13.370Z,11.00
2023-05-25T10:44:42.150Z,12.65
2023-05-25T10:47:09.710Z,12.52
2023-05-25T10:49:53.252Z,10.85
2023-05-25T10:52:20.871Z,11.88
2023-05-25T10:54:48.929Z,11.77
2023-05-25T10:57:20.999Z,13.05
2023-05-25T10:59:52.310Z,15.15
2023-05-25T11:02:25.213Z,13.00
2023-05-25T11:05:27.409Z,13.88
2023-05-25T11:07:57.885Z,13.35
2023-05-25T11:10:46.376Z,11.75
2023-05-25T11:13:23.692Z,13.73
2023-05-25T11:16:40.182Z,14.60
2023-05-25T11:19:15.060Z,13.82
2023-05-25T11:21:44.021Z,12.93
2023-05-25T11:24:14.174Z,11.10
2023-05-25T11:26:58.747Z,13.15
2023-05-25T11:29:27.358Z,15.55
2023-05-25T11:31:56.197Z,14.48
2023-05-25T11:34:28.150Z,14.73
2023-05-25T11:37:02.294Z,13.35
2023-05-25T11:39:30.288Z,13.10
2023-05-25T11:42:04.344Z,15.38
2023-05-25T11:44:34.209Z,11.70
2023-05-25T11:47:14.928Z,13.07
2023-05-25T11:49:44.252Z,13.25
2023-05-25T11:52:11.182Z,11.52
2023-05-25T11:54:41.089Z,10.38
2023-05-25T11:57:25.384Z,23.60
2023-05-25T11:59:54.367Z,23.40
2023-05-25T12:02:22.128Z,13.13
2023-05-25T12:04:59.433Z,11.00
2023-05-25T12:07:26.869Z,12.10
2023-05-25T12:10:08.444Z,11.30
2023-05-25T12:12:50.965Z,15.07
2023-05-25T12:15:27.176Z,13.60
2023-05-25T12:17:54.583Z,11.50
2023-05-25T12:20:22.530Z,10.98
2023-05-25T12:22:49.800Z,14.02
2023-05-25T12:25:20.241Z,11.73
2023-05-25T12:27:47.080Z,14.07
2023-05-25T12:30:14.062Z,12.32
2023-05-25T12:33:03.816Z,14.98
2023-05-25T12:35:45.234Z,14.27
2023-05-25T12:38:18.285Z,12.30
2023-05-25T12:40:45.635Z,10.57
2023-05-25T12:43:14.223Z,10.07
2023-05-25T12:45:42.602Z,10.98
2023-05-25T12:48:09.801Z,9.70
2023-05-25T12:50:41.406Z,10.35
2023-05-25T12:53:08.320Z,11.00
2023-05-25T12:55:36.292Z,11.40
2023-05-25T12:58:05.696Z,11.15
2023-05-25T13:00:35.502Z,8.73
2023-05-25T13:03:02.950Z,10.40
2023-05-25T13:05:32.982Z,12.45
2023-05-25T13:07:59.956Z,10.57
2023-05-25T13:10:28.818Z,10.13
2023-05-25T13:12:58.332Z,10.27
2023-05-25T13:15:26.372Z,9.32
2023-05-25T13:17:54.301Z,9.45
2023-05-25T13:20:24.945Z,9.65
2023-05-25T13:22:53.185Z,11.70
2023-05-25T13:25:22.325Z,11.63
2023-05-25T13:27:51.112Z,7.95
2023-05-25T13:30:18.325Z,8.02
2023-05-25T13:32:45.745Z,7.30
2023-05-25T13:35:19.359Z,8.40
2023-05-25T13:37:46.502Z,8.93
2023-05-25T13:40:13.740Z,9.02
2023-05-25T13:42:40.896Z,9.38
2023-05-25T13:45:08.404Z,8.80
2023-05-25T13:47:35.381Z,8.85
2023-05-25T13:50:02.305Z,9.52
2023-05-25T13:52:29.112Z,8.43
2023-05-25T13:54:55.991Z,7.93
2023-05-25T13:57:22.792Z,10.57
2023-05-25T13:59:49.565Z,10.60
2023-05-25T14:02:16.594Z,8.95
2023-05-25T14:04:43.501Z,10.10
2023-05-25T14:07:11.034Z,8.98
2023-05-25T14:09:37.967Z,10.98
2023-05-25T14:12:05.162Z,10.90
2023-05-25T14:14:33.038Z,8.55
2023-05-25T14:17:01.346Z,8.05
2023-05-25T14:19:29.377Z,8.30
2023-05-25T14:22:11.725Z,10.00
2023-05-25T14:24:40.696Z,8.82
2023-05-25T14:27:07.532Z,9.52
2023-05-25T14:29:34.648Z,9.25
2023-05-25T14:32:01.968Z,9.85
2023-05-25T14:34:29.557Z,8.15
2023-05-25T14:36:56.784Z,8.20
2023-05-25T14:39:23.661Z,8.50
2023-05-25T14:41:50.680Z,10.18
2023-05-25T14:44:17.607Z,8.48
2023-05-25T14:46:44.429Z,7.72
2023-05-25T14:49:11.211Z,10.98
2023-05-25T14:51:38.339Z,9.02
2023-05-25T14:54:06.448Z,9.27
2023-05-25T14:56:33.679Z,8.38
2023-05-25T14:59:00.440Z,11.95
2023-05-25T15:01:32.496Z,10.20
2023-05-25T15:03:59.386Z,9.80
2023-05-25T15:06:26.328Z,11.90
2023-05-25T15:08:53.383Z,10.85
2023-05-25T15:11:20.269Z,14.73
2023-05-25T15:13:47.059Z,9.82
2023-05-25T15:16:14.660Z,10.10
2023-05-25T15:18:41.671Z,10.95
2023-05-25T15:21:08.902Z,10.45
2023-05-25T15:23:36.762Z,10.05
2023-05-25T15:26:07.852Z,7.80
2023-05-25T15:28:35.078Z,10.70
2023-05-25T15:31:03.349Z,9.88
2023-05-25T15:33:44.152Z,10.77
2023-05-25T15:36:16.754Z,9.55
2023-05-25T15:38:44.502Z,10.50
2023-05-25T15:41:15.087Z,9.65
2023-05-25T15:43:42.278Z,10.90
2023-05-25T15:46:09.072Z,9.77
2023-05-25T15:48:36.022Z,7.90
2023-05-25T15:51:02.830Z,8.23
2023-05-25T15:53:30.447Z,9.00
2023-05-25T15:55:57.437Z,9.50
2023-05-25T15:58:24.243Z,11.32
2023-05-25T16:00:51.059Z,11.57
2023-05-25T16:03:17.936Z,9.35
2023-05-25T16:05:45.016Z,9.25
2023-05-25T16:08:14.059Z,9.15
2023-05-25T16:10:40.914Z,34.08
2023-05-25T16:13:07.729Z,10.98
2023-05-25T16:15:34.503Z,12.40
2023-05-25T16:18:01.407Z,11.07
2023-05-25T16:20:28.272Z,11.10
2023-05-25T16:22:55.069Z,10.55
2023-05-25T16:25:21.969Z,10.68
2023-05-25T16:27:48.769Z,10.35
2023-05-25T16:30:15.584Z,13.13
2023-05-25T16:32:42.456Z,11.07
2023-05-25T16:35:09.443Z,13.95
2023-05-25T16:37:36.225Z,11.02
2023-05-25T16:40:03.119Z,10.95
2023-05-25T16:42:29.951Z,11.13
2023-05-25T16:44:56.686Z,14.15
2023-05-25T16:47:23.436Z,12.10
2023-05-25T16:49:50.281Z,9.07
2023-05-25T16:52:17.096Z,12.65
2023-05-25T16:54:43.854Z,11.25
2023-05-25T16:57:11.412Z,11.52
2023-05-25T16:59:39.358Z,12.45
2023-05-25T17:02:06.803Z,11.68
2023-05-25T17:04:33.612Z,12.90
2023-05-25T17:07:00.459Z,14.30
2023-05-25T17:09:27.564Z,13.35
2023-05-25T17:11:59.411Z,11.57
2023-05-25T17:14:26.240Z,11.52
2023-05-25T17:16:53.511Z,18.20
2023-05-25T17:19:20.307Z,13.40
2023-05-25T17:21:47.648Z,12.88
2023-05-25T17:24:14.490Z,13.65
2023-05-25T17:26:41.525Z,12.60
2023-05-25T17:29:08.361Z,8.90
2023-05-25T17:31:35.652Z,11.95
2023-05-25T17:34:05.904Z,14.57
2023-05-25T17:36:32.726Z,9.30
2023-05-25T17:38:59.586Z,11.30
2023-05-25T17:41:26.512Z,9.82
2023-05-25T17:43:53.414Z,12.43
2023-05-25T17:46:45.660Z,10.95
2023-05-25T17:49:15.345Z,9.77
2023-05-25T17:51:42.277Z,14.80
2023-05-25T17:55:00.537Z,10.68
2023-05-25T17:57:27.458Z,12.80
2023-05-25T17:59:56.375Z,11.13
2023-05-25T18:02:23.460Z,13.35
2023-05-25T18:04:50.637Z,11.90
2023-05-25T18:07:18.023Z,12.10
2023-05-25T18:09:44.855Z,10.93
2023-05-25T18:12:11.795Z,10.25
2023-05-25T18:14:38.735Z,12.15
2023-05-25T18:17:05.695Z,9.60
2023-05-25T18:19:32.593Z,13.50
2023-05-25T18:21:59.456Z,12.52
2023-05-25T18:24:26.388Z,12.75
2023-05-25T18:26:53.189Z,13.90
2023-05-25T18:29:20.014Z,11.70
2023-05-25T18:31:48.917Z,11.70
2023-05-25T18:34:16.133Z,14.95
2023-05-25T18:36:42.996Z,14.48
2023-05-25T18:39:09.895Z,16.38
2023-05-25T18:41:36.829Z,11.88
2023-05-25T18:44:03.709Z,17.45
2023-05-25T18:46:30.694Z,14.10
2023-05-25T18:48:57.425Z,13.82
2023-05-25T18:51:25.983Z,15.68
2023-05-25T18:53:53.408Z,14.02
2023-05-25T18:56:20.182Z,11.85
2023-05-25T18:58:48.262Z,11.73
2023-05-25T19:01:15.722Z,18.63
2023-05-25T19:03:42.621Z,12.82
2023-05-25T19:06:09.616Z,13.60
2023-05-25T19:08:36.420Z,13.18
2023-05-25T19:11:03.303Z,14.38
2023-05-25T19:13:30.101Z,14.63
2023-05-25T19:15:56.958Z,17.65
2023-05-25T19:18:23.779Z,14.80
2023-05-25T19:20:50.663Z,12.60
2023-05-25T19:23:19.503Z,13.13
2023-05-25T19:25:46.672Z,14.65
2023-05-25T19:28:14.346Z,11.70
2023-05-25T19:30:41.331Z,13.48
2023-05-25T19:33:08.369Z,17.75
2023-05-25T19:35:35.701Z,15.68
2023-05-25T19:38:02.591Z,17.52
2023-05-25T19:40:29.493Z,15.60
2023-05-25T19:42:56.370Z,14.55
2023-05-25T19:45:23.294Z,17.38
2023-05-25T19:47:50.633Z,11.07
2023-05-25T19:50:17.648Z,16.30
2023-05-25T19:52:44.639Z,14.32
2023-05-25T19:55:11.687Z,12.35
2023-05-25T19:57:38.604Z,14.98
2023-05-25T20:00:14.193Z,14.43
2023-05-25T20:02:48.330Z,13.10
2023-05-25T20:05:15.197Z,16.42
2023-05-25T20:07:42.160Z,16.60
2023-05-25T20:10:09.316Z,15.30
2023-05-25T20:12:36.235Z,16.13
2023-05-25T20:15:03.701Z,16.08
2023-05-25T20:17:30.765Z,16.23
2023-05-25T20:19:59.626Z,14.18
2023-05-25T20:22:28.165Z,15.10
2023-05-25T20:24:58.376Z,12.65
2023-05-25T20:27:25.923Z,16.45
2023-05-25T20:29:54.083Z,12.00
2023-05-25T20:32:21.210Z,18.48
2023-05-25T20:34:50.519Z,12.90
2023-05-25T20:37:17.442Z,14.98
2023-05-25T20:39:44.670Z,16.98
2023-05-25T20:42:11.850Z,13.27
2023-05-25T20:44:38.942Z,14.80
2023-05-25T20:47:08.759Z,14.93
2023-05-25T20:49:35.774Z,12.90
2023-05-25T20:52:02.857Z,14.65
2023-05-25T20:54:30.153Z,15.25
2023-05-25T20:56:57.254Z,13.20
2023-05-25T20:59:24.241Z,18.85
2023-05-25T21:01:51.315Z,13.65
2023-05-25T21:04:18.493Z,16.98
2023-05-25T21:06:45.725Z,19.45
2023-05-25T21:09:12.807Z,16.83
2023-05-25T21:11:39.756Z,15.13
2023-05-25T21:14:07.396Z,16.73
2023-05-25T21:16:34.885Z,13.38
2023-05-25T21:19:04.158Z,16.88
2023-05-25T21:21:33.981Z,16.40
2023-05-25T21:24:04.393Z,21.00
2023-05-25T21:26:31.624Z,15.63
2023-05-25T21:29:01.931Z,14.50
2023-05-25T21:31:29.030Z,14.57
2023-05-25T21:33:56.153Z,25.43
2023-05-25T21:36:23.259Z,15.38
2023-05-25T21:38:50.600Z,14.07
2023-05-25T21:41:17.799Z,18.35
2023-05-25T21:43:44.784Z,21.00
2023-05-25T21:46:11.638Z,17.40
2023-05-25T21:48:38.434Z,16.80
2023-05-25T21:51:05.560Z,17.42
2023-05-25T21:53:32.457Z,17.42
2023-05-25T21:55:59.344Z,15.40
2023-05-25T21:58:26.279Z,16.50
2023-05-25T22:00:53.167Z,18.55
2023-05-25T22:03:20.116Z,16.87
2023-05-25T22:05:47.041Z,17.37
2023-05-25T22:08:13.914Z,17.50
2023-05-25T22:10:41.200Z,15.25
2023-05-25T22:13:08.082Z,21.53
2023-05-25T22:15:35.328Z,18.83
2023-05-25T22:18:02.365Z,18.58
2023-05-25T22:20:29.307Z,21.30
2023-05-25T22:22:56.154Z,15.57
2023-05-25T22:25:23.202Z,16.83
2023-05-25T22:27:49.993Z,18.33
2023-05-25T22:30:16.843Z,15.23
2023-05-25T22:32:43.671Z,17.30
2023-05-25T22:35:10.615Z,17.80
2023-05-25T22:37:37.474Z,15.87
2023-05-25T22:40:05.916Z,15.90
2023-05-25T22:42:32.862Z,15.03
2023-05-25T22:44:59.614Z,16.50
2023-05-25T22:47:26.487Z,17.97
2023-05-25T22:49:53.332Z,18.00
2023-05-25T22:52:20.164Z,18.63
2023-05-25T22:54:47.004Z,19.70
2023-05-25T22:57:13.814Z,17.73
2023-05-25T22:59:40.709Z,20.17
2023-05-25T23:02:08.077Z,19.83
2023-05-25T23:04:38.274Z,15.27
2023-05-25T23:07:05.354Z,14.23
2023-05-25T23:09:32.121Z,14.53
2023-05-25T23:11:58.846Z,16.37
2023-05-25T23:14:26.219Z,18.93
2023-05-25T23:16:53.027Z,14.47
2023-05-25T23:19:20.000Z,13.50
2023-05-25T23:21:48.327Z,13.50
2023-05-25T23:24:15.604Z,12.33
2023-05-25T23:26:42.447Z,16.70
2023-05-25T23:29:09.344Z,20.23
2023-05-25T23:31:36.655Z,19.53
2023-05-25T23:34:03.513Z,20.30
2023-05-25T23:36:30.332Z,22.57
2023-05-25T23:38:57.115Z,19.63
2023-05-25T23:41:25.398Z,17.73
2023-05-25T23:43:52.273Z,18.10
2023-05-25T23:46:19.346Z,18.07
2023-05-25T23:48:46.302Z,18.13
2023-05-25T23:51:13.325Z,16.03
2023-05-25T23:53:40.075Z,15.70
2023-05-25T23:56:07.137Z,17.13
2023-05-25T23:58:34.326Z,15.70
